sensor_id;sensor_type;location;lat;lon;timestamp;temperature;humidity
44477;DHT22;30180;44.788;10.366;2024-02-26T00:00:24;17.60;65.10
44477;DHT22;30180;44.788;10.366;2024-02-26T00:02:54;17.60;65.10
44477;DHT22;30180;44.788;10.366;2024-02-26T00:05:23;17.60;65.10
44477;DHT22;30180;44.788;10.366;2024-02-26T00:07:51;17.60;65.20
44477;DHT22;30180;44.788;10.366;2024-02-26T00:10:20;17.60;65.10
44477;DHT22;30180;44.788;10.366;2024-02-26T00:12:49;17.60;65.10
44477;DHT22;30180;44.788;10.366;2024-02-26T00:15:17;17.60;65.10
44477;DHT22;30180;44.788;10.366;2024-02-26T00:17:46;17.60;65.10
44477;DHT22;30180;44.788;10.366;2024-02-26T00:20:16;17.60;65.10
44477;DHT22;30180;44.788;10.366;2024-02-26T00:22:44;17.60;65.10
44477;DHT22;30180;44.788;10.366;2024-02-26T00:25:13;17.50;65.10
44477;DHT22;30180;44.788;10.366;2024-02-26T00:27:41;17.50;65.00
44477;DHT22;30180;44.788;10.366;2024-02-26T00:30:11;17.60;65.10
44477;DHT22;30180;44.788;10.366;2024-02-26T00:32:40;17.50;65.00
44477;DHT22;30180;44.788;10.366;2024-02-26T00:35:09;17.50;65.10
44477;DHT22;30180;44.788;10.366;2024-02-26T00:37:39;17.50;65.10
44477;DHT22;30180;44.788;10.366;2024-02-26T00:40:08;17.50;65.00
44477;DHT22;30180;44.788;10.366;2024-02-26T00:42:36;17.50;65.10
44477;DHT22;30180;44.788;10.366;2024-02-26T00:45:06;17.50;65.10
44477;DHT22;30180;44.788;10.366;2024-02-26T00:47:34;17.50;65.10
44477;DHT22;30180;44.788;10.366;2024-02-26T00:50:03;17.50;65.10
44477;DHT22;30180;44.788;10.366;2024-02-26T00:52:32;17.50;65.10
44477;DHT22;30180;44.788;10.366;2024-02-26T00:55:02;17.50;65.10
44477;DHT22;30180;44.788;10.366;2024-02-26T00:57:31;17.50;65.10
44477;DHT22;30180;44.788;10.366;2024-02-26T01:00:00;17.50;65.10
44477;DHT22;30180;44.788;10.366;2024-02-26T01:02:28;17.50;65.10
44477;DHT22;30180;44.788;10.366;2024-02-26T01:04:57;17.50;65.10
44477;DHT22;30180;44.788;10.366;2024-02-26T01:07:25;17.50;65.10
44477;DHT22;30180;44.788;10.366;2024-02-26T01:09:54;17.50;65.10
44477;DHT22;30180;44.788;10.366;2024-02-26T01:12:24;17.50;65.10
44477;DHT22;30180;44.788;10.366;2024-02-26T01:14:53;17.50;65.10
44477;DHT22;30180;44.788;10.366;2024-02-26T01:17:21;17.50;65.80
44477;DHT22;30180;44.788;10.366;2024-02-26T01:19:50;17.50;65.10
44477;DHT22;30180;44.788;10.366;2024-02-26T01:22:18;17.50;65.10
44477;DHT22;30180;44.788;10.366;2024-02-26T01:24:47;17.40;65.10
44477;DHT22;30180;44.788;10.366;2024-02-26T01:27:15;17.50;65.20
44477;DHT22;30180;44.788;10.366;2024-02-26T01:29:45;17.40;65.10
44477;DHT22;30180;44.788;10.366;2024-02-26T01:32:14;17.50;65.20
44477;DHT22;30180;44.788;10.366;2024-02-26T01:34:42;17.40;65.10
44477;DHT22;30180;44.788;10.366;2024-02-26T01:37:11;17.40;65.10
44477;DHT22;30180;44.788;10.366;2024-02-26T01:39:39;17.40;65.10
44477;DHT22;30180;44.788;10.366;2024-02-26T01:42:08;17.40;65.20
44477;DHT22;30180;44.788;10.366;2024-02-26T01:44:37;17.40;65.20
44477;DHT22;30180;44.788;10.366;2024-02-26T01:47:09;17.40;65.20
44477;DHT22;30180;44.788;10.366;2024-02-26T01:49:39;17.40;65.20
44477;DHT22;30180;44.788;10.366;2024-02-26T01:52:09;17.40;65.80
44477;DHT22;30180;44.788;10.366;2024-02-26T01:54:39;17.40;65.20
44477;DHT22;30180;44.788;10.366;2024-02-26T01:57:08;17.40;65.20
44477;DHT22;30180;44.788;10.366;2024-02-26T01:59:37;17.40;65.20
44477;DHT22;30180;44.788;10.366;2024-02-26T02:02:09;17.40;65.20
44477;DHT22;30180;44.788;10.366;2024-02-26T02:04:39;17.40;65.20
44477;DHT22;30180;44.788;10.366;2024-02-26T02:07:08;17.40;65.20
44477;DHT22;30180;44.788;10.366;2024-02-26T02:09:37;17.40;65.20
44477;DHT22;30180;44.788;10.366;2024-02-26T02:12:06;17.40;65.20
44477;DHT22;30180;44.788;10.366;2024-02-26T02:14:35;17.40;65.20
44477;DHT22;30180;44.788;10.366;2024-02-26T02:17:03;17.40;65.20
44477;DHT22;30180;44.788;10.366;2024-02-26T02:19:33;17.40;65.20
44477;DHT22;30180;44.788;10.366;2024-02-26T02:22:04;17.40;65.30
44477;DHT22;30180;44.788;10.366;2024-02-26T02:24:32;17.40;65.30
44477;DHT22;30180;44.788;10.366;2024-02-26T02:27:01;17.40;65.30
44477;DHT22;30180;44.788;10.366;2024-02-26T02:29:29;17.40;65.30
44477;DHT22;30180;44.788;10.366;2024-02-26T02:31:59;17.40;65.30
44477;DHT22;30180;44.788;10.366;2024-02-26T02:34:29;17.30;65.20
44477;DHT22;30180;44.788;10.366;2024-02-26T02:36:59;17.30;65.30
44477;DHT22;30180;44.788;10.366;2024-02-26T02:39:29;17.40;65.30
44477;DHT22;30180;44.788;10.366;2024-02-26T02:41:57;17.40;65.30
44477;DHT22;30180;44.788;10.366;2024-02-26T02:44:26;17.40;65.30
44477;DHT22;30180;44.788;10.366;2024-02-26T02:46:54;17.40;65.30
44477;DHT22;30180;44.788;10.366;2024-02-26T02:49:23;17.30;65.30
44477;DHT22;30180;44.788;10.366;2024-02-26T02:51:52;17.30;65.30
44477;DHT22;30180;44.788;10.366;2024-02-26T02:54:21;17.40;65.30
44477;DHT22;30180;44.788;10.366;2024-02-26T02:56:51;17.30;65.30
44477;DHT22;30180;44.788;10.366;2024-02-26T02:59:19;17.30;65.30
44477;DHT22;30180;44.788;10.366;2024-02-26T03:01:48;17.30;65.30
44477;DHT22;30180;44.788;10.366;2024-02-26T03:04:17;17.30;65.30
44477;DHT22;30180;44.788;10.366;2024-02-26T03:06:45;17.30;65.30
44477;DHT22;30180;44.788;10.366;2024-02-26T03:09:14;17.30;65.30
44477;DHT22;30180;44.788;10.366;2024-02-26T03:11:42;17.30;65.30
44477;DHT22;30180;44.788;10.366;2024-02-26T03:14:12;17.30;65.40
44477;DHT22;30180;44.788;10.366;2024-02-26T03:16:40;17.30;65.40
44477;DHT22;30180;44.788;10.366;2024-02-26T03:19:09;17.30;65.40
44477;DHT22;30180;44.788;10.366;2024-02-26T03:21:37;17.30;65.40
44477;DHT22;30180;44.788;10.366;2024-02-26T03:24:06;17.30;65.40
44477;DHT22;30180;44.788;10.366;2024-02-26T03:26:37;17.30;65.40
44477;DHT22;30180;44.788;10.366;2024-02-26T03:29:06;17.30;65.40
44477;DHT22;30180;44.788;10.366;2024-02-26T03:31:36;17.30;65.40
44477;DHT22;30180;44.788;10.366;2024-02-26T03:34:04;17.20;65.40
44477;DHT22;30180;44.788;10.366;2024-02-26T03:36:33;17.30;65.40
44477;DHT22;30180;44.788;10.366;2024-02-26T03:39:01;17.30;65.50
44477;DHT22;30180;44.788;10.366;2024-02-26T03:41:31;17.30;65.50
44477;DHT22;30180;44.788;10.366;2024-02-26T03:44:00;17.30;65.50
44477;DHT22;30180;44.788;10.366;2024-02-26T03:46:28;17.30;65.50
44477;DHT22;30180;44.788;10.366;2024-02-26T03:48:58;17.20;65.50
44477;DHT22;30180;44.788;10.366;2024-02-26T03:51:27;17.30;65.50
44477;DHT22;30180;44.788;10.366;2024-02-26T03:53:58;17.30;65.50
44477;DHT22;30180;44.788;10.366;2024-02-26T03:56:27;17.20;65.50
44477;DHT22;30180;44.788;10.366;2024-02-26T03:58:56;17.30;65.50
44477;DHT22;30180;44.788;10.366;2024-02-26T04:01:26;17.20;65.50
44477;DHT22;30180;44.788;10.366;2024-02-26T04:03:55;17.20;65.50
44477;DHT22;30180;44.788;10.366;2024-02-26T04:06:25;17.20;65.50
44477;DHT22;30180;44.788;10.366;2024-02-26T04:08:54;17.20;65.60
44477;DHT22;30180;44.788;10.366;2024-02-26T04:11:22;17.20;65.50
44477;DHT22;30180;44.788;10.366;2024-02-26T04:13:51;17.20;65.50
44477;DHT22;30180;44.788;10.366;2024-02-26T04:16:20;17.20;65.50
44477;DHT22;30180;44.788;10.366;2024-02-26T04:18:48;17.20;65.60
44477;DHT22;30180;44.788;10.366;2024-02-26T04:21:17;17.20;65.60
44477;DHT22;30180;44.788;10.366;2024-02-26T04:23:47;17.20;65.60
44477;DHT22;30180;44.788;10.366;2024-02-26T04:26:17;17.20;65.60
44477;DHT22;30180;44.788;10.366;2024-02-26T04:28:45;17.20;65.60
44477;DHT22;30180;44.788;10.366;2024-02-26T04:31:14;17.20;65.70
44477;DHT22;30180;44.788;10.366;2024-02-26T04:33:42;17.20;65.70
44477;DHT22;30180;44.788;10.366;2024-02-26T04:36:13;17.20;65.70
44477;DHT22;30180;44.788;10.366;2024-02-26T04:38:42;17.20;65.70
44477;DHT22;30180;44.788;10.366;2024-02-26T04:41:12;17.30;65.80
44477;DHT22;30180;44.788;10.366;2024-02-26T04:43:40;17.30;65.80
44477;DHT22;30180;44.788;10.366;2024-02-26T04:46:10;17.30;65.80
44477;DHT22;30180;44.788;10.366;2024-02-26T04:48:38;17.30;65.80
44477;DHT22;30180;44.788;10.366;2024-02-26T04:51:09;17.30;65.80
44477;DHT22;30180;44.788;10.366;2024-02-26T04:53:38;17.30;65.80
44477;DHT22;30180;44.788;10.366;2024-02-26T04:56:06;17.30;65.90
44477;DHT22;30180;44.788;10.366;2024-02-26T04:58:36;17.30;65.80
44477;DHT22;30180;44.788;10.366;2024-02-26T05:01:05;17.30;65.90
44477;DHT22;30180;44.788;10.366;2024-02-26T05:03:33;17.30;65.90
44477;DHT22;30180;44.788;10.366;2024-02-26T05:06:04;17.30;65.90
44477;DHT22;30180;44.788;10.366;2024-02-26T05:08:33;17.30;65.90
44477;DHT22;30180;44.788;10.366;2024-02-26T05:11:03;17.30;65.90
44477;DHT22;30180;44.788;10.366;2024-02-26T05:13:32;17.30;65.90
44477;DHT22;30180;44.788;10.366;2024-02-26T05:16:02;17.30;65.90
44477;DHT22;30180;44.788;10.366;2024-02-26T05:18:30;17.30;65.80
44477;DHT22;30180;44.788;10.366;2024-02-26T05:20:59;17.30;65.80
44477;DHT22;30180;44.788;10.366;2024-02-26T05:23:27;17.30;65.80
44477;DHT22;30180;44.788;10.366;2024-02-26T05:25:56;17.20;65.70
44477;DHT22;30180;44.788;10.366;2024-02-26T05:28:24;17.30;65.70
44477;DHT22;30180;44.788;10.366;2024-02-26T05:30:53;17.20;65.70
44477;DHT22;30180;44.788;10.366;2024-02-26T05:33:23;17.20;65.70
44477;DHT22;30180;44.788;10.366;2024-02-26T05:35:52;17.20;65.70
44477;DHT22;30180;44.788;10.366;2024-02-26T05:38:21;17.20;65.70
44477;DHT22;30180;44.788;10.366;2024-02-26T05:40:49;17.20;65.70
44477;DHT22;30180;44.788;10.366;2024-02-26T05:43:19;17.10;65.60
44477;DHT22;30180;44.788;10.366;2024-02-26T05:45:48;17.10;65.60
44477;DHT22;30180;44.788;10.366;2024-02-26T05:48:16;17.10;66.30
44477;DHT22;30180;44.788;10.366;2024-02-26T05:50:47;17.10;65.60
44477;DHT22;30180;44.788;10.366;2024-02-26T05:53:16;17.10;65.70
44477;DHT22;30180;44.788;10.366;2024-02-26T05:55:44;17.10;65.60
44477;DHT22;30180;44.788;10.366;2024-02-26T05:58:13;17.10;65.60
44477;DHT22;30180;44.788;10.366;2024-02-26T06:00:42;17.10;65.60
44477;DHT22;30180;44.788;10.366;2024-02-26T06:03:10;17.10;65.60
44477;DHT22;30180;44.788;10.366;2024-02-26T06:05:39;17.10;65.60
44477;DHT22;30180;44.788;10.366;2024-02-26T06:08:11;17.00;65.40
44477;DHT22;30180;44.788;10.366;2024-02-26T06:10:42;17.00;65.40
44477;DHT22;30180;44.788;10.366;2024-02-26T06:13:11;17.00;65.40
44477;DHT22;30180;44.788;10.366;2024-02-26T06:15:40;17.00;65.50
44477;DHT22;30180;44.788;10.366;2024-02-26T06:18:08;17.00;65.50
44477;DHT22;30180;44.788;10.366;2024-02-26T06:20:37;17.00;65.60
44477;DHT22;30180;44.788;10.366;2024-02-26T06:23:06;17.00;65.60
44477;DHT22;30180;44.788;10.366;2024-02-26T06:25:36;17.00;65.70
44477;DHT22;30180;44.788;10.366;2024-02-26T06:28:05;17.00;65.70
44477;DHT22;30180;44.788;10.366;2024-02-26T06:30:33;17.10;65.70
44477;DHT22;30180;44.788;10.366;2024-02-26T06:33:03;17.10;65.80
44477;DHT22;30180;44.788;10.366;2024-02-26T06:35:32;17.10;65.80
44477;DHT22;30180;44.788;10.366;2024-02-26T06:38:01;17.10;65.80
44477;DHT22;30180;44.788;10.366;2024-02-26T06:40:29;17.20;65.90
44477;DHT22;30180;44.788;10.366;2024-02-26T06:42:59;17.20;65.90
44477;DHT22;30180;44.788;10.366;2024-02-26T06:45:28;17.20;65.90
44477;DHT22;30180;44.788;10.366;2024-02-26T06:47:56;17.20;65.90
44477;DHT22;30180;44.788;10.366;2024-02-26T06:50:25;17.30;66.00
44477;DHT22;30180;44.788;10.366;2024-02-26T06:52:53;17.30;66.00
44477;DHT22;30180;44.788;10.366;2024-02-26T06:55:22;17.30;66.00
44477;DHT22;30180;44.788;10.366;2024-02-26T06:57:50;17.40;66.10
44477;DHT22;30180;44.788;10.366;2024-02-26T07:00:21;17.40;66.10
44477;DHT22;30180;44.788;10.366;2024-02-26T07:02:49;17.40;66.00
44477;DHT22;30180;44.788;10.366;2024-02-26T07:05:18;17.40;66.00
44477;DHT22;30180;44.788;10.366;2024-02-26T07:07:46;17.50;66.70
44477;DHT22;30180;44.788;10.366;2024-02-26T07:10:15;17.50;66.10
44477;DHT22;30180;44.788;10.366;2024-02-26T07:12:43;17.50;66.10
44477;DHT22;30180;44.788;10.366;2024-02-26T07:15:12;17.60;66.20
44477;DHT22;30180;44.788;10.366;2024-02-26T07:17:42;17.60;66.20
44477;DHT22;30180;44.788;10.366;2024-02-26T07:20:14;17.70;66.30
44477;DHT22;30180;44.788;10.366;2024-02-26T07:22:45;17.70;66.30
44477;DHT22;30180;44.788;10.366;2024-02-26T07:25:13;17.80;66.30
44477;DHT22;30180;44.788;10.366;2024-02-26T07:27:43;17.80;66.30
44477;DHT22;30180;44.788;10.366;2024-02-26T07:30:12;17.90;66.30
44477;DHT22;30180;44.788;10.366;2024-02-26T07:32:43;17.90;66.30
44477;DHT22;30180;44.788;10.366;2024-02-26T07:35:17;17.90;66.20
44477;DHT22;30180;44.788;10.366;2024-02-26T07:37:48;18.00;66.20
44477;DHT22;30180;44.788;10.366;2024-02-26T07:40:17;18.00;66.20
44477;DHT22;30180;44.788;10.366;2024-02-26T07:42:45;18.10;66.30
44477;DHT22;30180;44.788;10.366;2024-02-26T07:45:15;18.10;66.20
44477;DHT22;30180;44.788;10.366;2024-02-26T07:47:48;18.10;66.20
44477;DHT22;30180;44.788;10.366;2024-02-26T07:50:19;18.10;66.20
44477;DHT22;30180;44.788;10.366;2024-02-26T07:52:48;18.10;66.10
44477;DHT22;30180;44.788;10.366;2024-02-26T07:55:18;18.20;66.20
44477;DHT22;30180;44.788;10.366;2024-02-26T07:57:47;18.20;66.20
44477;DHT22;30180;44.788;10.366;2024-02-26T08:00:16;18.20;66.10
44477;DHT22;30180;44.788;10.366;2024-02-26T08:02:44;18.20;66.10
44477;DHT22;30180;44.788;10.366;2024-02-26T08:05:15;18.20;66.70
44477;DHT22;30180;44.788;10.366;2024-02-26T08:07:44;18.20;66.10
44477;DHT22;30180;44.788;10.366;2024-02-26T08:10:13;18.20;66.00
44477;DHT22;30180;44.788;10.366;2024-02-26T08:12:42;18.20;66.00
44477;DHT22;30180;44.788;10.366;2024-02-26T08:15:12;18.30;66.10
44477;DHT22;30180;44.788;10.366;2024-02-26T08:17:41;18.30;66.10
44477;DHT22;30180;44.788;10.366;2024-02-26T08:20:10;18.30;66.00
44477;DHT22;30180;44.788;10.366;2024-02-26T08:22:41;18.30;66.00
44477;DHT22;30180;44.788;10.366;2024-02-26T08:25:10;18.30;66.00
44477;DHT22;30180;44.788;10.366;2024-02-26T08:27:38;18.30;66.10
44477;DHT22;30180;44.788;10.366;2024-02-26T08:30:09;18.30;66.10
44477;DHT22;30180;44.788;10.366;2024-02-26T08:32:40;18.30;66.10
44477;DHT22;30180;44.788;10.366;2024-02-26T08:35:09;18.30;66.00
44477;DHT22;30180;44.788;10.366;2024-02-26T08:37:38;18.30;66.00
44477;DHT22;30180;44.788;10.366;2024-02-26T08:40:08;18.30;66.00
44477;DHT22;30180;44.788;10.366;2024-02-26T08:42:38;18.30;66.00
44477;DHT22;30180;44.788;10.366;2024-02-26T08:45:07;18.30;66.00
44477;DHT22;30180;44.788;10.366;2024-02-26T08:47:36;18.30;66.00
44477;DHT22;30180;44.788;10.366;2024-02-26T08:50:05;18.30;66.00
44477;DHT22;30180;44.788;10.366;2024-02-26T08:52:33;18.30;66.00
44477;DHT22;30180;44.788;10.366;2024-02-26T08:55:02;18.30;65.90
44477;DHT22;30180;44.788;10.366;2024-02-26T08:57:32;18.40;66.00
44477;DHT22;30180;44.788;10.366;2024-02-26T09:00:01;18.40;66.00
44477;DHT22;30180;44.788;10.366;2024-02-26T09:02:29;18.40;66.00
44477;DHT22;30180;44.788;10.366;2024-02-26T09:04:57;18.40;66.00
44477;DHT22;30180;44.788;10.366;2024-02-26T09:07:26;18.30;65.90
44477;DHT22;30180;44.788;10.366;2024-02-26T09:09:54;18.40;65.90
44477;DHT22;30180;44.788;10.366;2024-02-26T09:12:23;18.40;65.90
44477;DHT22;30180;44.788;10.366;2024-02-26T09:14:54;18.30;65.90
44477;DHT22;30180;44.788;10.366;2024-02-26T09:17:23;18.30;65.90
44477;DHT22;30180;44.788;10.366;2024-02-26T09:19:51;18.40;65.90
44477;DHT22;30180;44.788;10.366;2024-02-26T09:22:20;18.30;65.90
44477;DHT22;30180;44.788;10.366;2024-02-26T09:24:49;18.30;65.90
44477;DHT22;30180;44.788;10.366;2024-02-26T09:27:19;18.40;66.00
44477;DHT22;30180;44.788;10.366;2024-02-26T09:29:48;18.30;66.00
44477;DHT22;30180;44.788;10.366;2024-02-26T09:32:18;18.40;66.10
44477;DHT22;30180;44.788;10.366;2024-02-26T09:34:46;18.40;66.10
44477;DHT22;30180;44.788;10.366;2024-02-26T09:37:15;18.40;66.00
44477;DHT22;30180;44.788;10.366;2024-02-26T09:39:48;18.40;66.10
44477;DHT22;30180;44.788;10.366;2024-02-26T09:42:18;18.30;66.00
44477;DHT22;30180;44.788;10.366;2024-02-26T09:44:49;18.40;66.00
44477;DHT22;30180;44.788;10.366;2024-02-26T09:47:22;18.40;66.00
44477;DHT22;30180;44.788;10.366;2024-02-26T09:49:52;18.30;65.90
44477;DHT22;30180;44.788;10.366;2024-02-26T09:52:22;18.30;65.90
44477;DHT22;30180;44.788;10.366;2024-02-26T09:54:51;18.40;66.00
44477;DHT22;30180;44.788;10.366;2024-02-26T09:57:20;18.30;66.00
44477;DHT22;30180;44.788;10.366;2024-02-26T09:59:53;18.30;65.90
44477;DHT22;30180;44.788;10.366;2024-02-26T10:02:27;18.30;65.90
44477;DHT22;30180;44.788;10.366;2024-02-26T10:04:57;18.40;65.90
44477;DHT22;30180;44.788;10.366;2024-02-26T10:07:31;18.30;65.90
44477;DHT22;30180;44.788;10.366;2024-02-26T10:10:00;18.30;65.90
44477;DHT22;30180;44.788;10.366;2024-02-26T10:12:29;18.30;65.90
44477;DHT22;30180;44.788;10.366;2024-02-26T10:14:58;18.30;66.00
44477;DHT22;30180;44.788;10.366;2024-02-26T10:17:28;18.30;65.90
44477;DHT22;30180;44.788;10.366;2024-02-26T10:20:11;18.30;65.90
44477;DHT22;30180;44.788;10.366;2024-02-26T10:22:41;18.30;65.90
44477;DHT22;30180;44.788;10.366;2024-02-26T10:25:09;18.30;66.00
44477;DHT22;30180;44.788;10.366;2024-02-26T10:27:39;18.30;66.00
44477;DHT22;30180;44.788;10.366;2024-02-26T10:30:16;18.30;66.00
44477;DHT22;30180;44.788;10.366;2024-02-26T10:32:49;18.30;66.10
44477;DHT22;30180;44.788;10.366;2024-02-26T10:35:19;18.30;66.10
44477;DHT22;30180;44.788;10.366;2024-02-26T10:37:49;18.30;66.10
44477;DHT22;30180;44.788;10.366;2024-02-26T10:40:18;18.40;66.20
44477;DHT22;30180;44.788;10.366;2024-02-26T10:42:46;18.40;66.90
44477;DHT22;30180;44.788;10.366;2024-02-26T10:45:15;18.40;66.20
44477;DHT22;30180;44.788;10.366;2024-02-26T10:47:43;18.40;66.30
44477;DHT22;30180;44.788;10.366;2024-02-26T10:50:14;18.50;66.30
44477;DHT22;30180;44.788;10.366;2024-02-26T10:52:43;18.40;66.30
44477;DHT22;30180;44.788;10.366;2024-02-26T10:55:15;18.50;66.40
44477;DHT22;30180;44.788;10.366;2024-02-26T10:57:46;18.50;66.40
44477;DHT22;30180;44.788;10.366;2024-02-26T11:00:16;18.50;66.40
44477;DHT22;30180;44.788;10.366;2024-02-26T11:02:45;18.50;66.40
44477;DHT22;30180;44.788;10.366;2024-02-26T11:05:17;18.50;66.40
44477;DHT22;30180;44.788;10.366;2024-02-26T11:07:46;18.60;66.50
44477;DHT22;30180;44.788;10.366;2024-02-26T11:10:16;18.60;66.50
44477;DHT22;30180;44.788;10.366;2024-02-26T11:12:46;18.60;66.50
44477;DHT22;30180;44.788;10.366;2024-02-26T11:15:15;18.70;66.60
44477;DHT22;30180;44.788;10.366;2024-02-26T11:17:46;18.70;66.60
44477;DHT22;30180;44.788;10.366;2024-02-26T11:20:18;18.70;67.10
44477;DHT22;30180;44.788;10.366;2024-02-26T11:22:47;18.60;66.40
44477;DHT22;30180;44.788;10.366;2024-02-26T11:25:16;18.70;66.40
44477;DHT22;30180;44.788;10.366;2024-02-26T11:27:47;18.70;66.40
44477;DHT22;30180;44.788;10.366;2024-02-26T11:30:17;18.70;66.40
44477;DHT22;30180;44.788;10.366;2024-02-26T11:32:47;18.70;66.40
44477;DHT22;30180;44.788;10.366;2024-02-26T11:35:17;18.70;66.40
44477;DHT22;30180;44.788;10.366;2024-02-26T11:37:53;18.70;66.40
44477;DHT22;30180;44.788;10.366;2024-02-26T11:40:24;18.70;66.40
44477;DHT22;30180;44.788;10.366;2024-02-26T11:42:53;18.70;66.40
44477;DHT22;30180;44.788;10.366;2024-02-26T11:45:50;18.70;66.40
44477;DHT22;30180;44.788;10.366;2024-02-26T11:48:23;18.70;66.40
44477;DHT22;30180;44.788;10.366;2024-02-26T11:50:55;18.80;66.50
44477;DHT22;30180;44.788;10.366;2024-02-26T11:53:26;18.70;66.40
44477;DHT22;30180;44.788;10.366;2024-02-26T11:56:19;18.70;66.40
44477;DHT22;30180;44.788;10.366;2024-02-26T11:58:48;18.70;66.40
44477;DHT22;30180;44.788;10.366;2024-02-26T12:01:41;18.70;66.30
44477;DHT22;30180;44.788;10.366;2024-02-26T12:04:14;18.70;66.30
44477;DHT22;30180;44.788;10.366;2024-02-26T12:07:03;18.80;66.40
44477;DHT22;30180;44.788;10.366;2024-02-26T12:09:36;18.70;66.30
44477;DHT22;30180;44.788;10.366;2024-02-26T12:12:06;18.80;66.30
44477;DHT22;30180;44.788;10.366;2024-02-26T12:14:38;18.70;66.30
44477;DHT22;30180;44.788;10.366;2024-02-26T12:17:07;18.80;66.30
44477;DHT22;30180;44.788;10.366;2024-02-26T12:19:36;18.70;66.30
44477;DHT22;30180;44.788;10.366;2024-02-26T12:22:13;18.70;66.30
44477;DHT22;30180;44.788;10.366;2024-02-26T12:24:41;18.70;66.30
44477;DHT22;30180;44.788;10.366;2024-02-26T12:27:10;18.70;66.30
44477;DHT22;30180;44.788;10.366;2024-02-26T12:29:40;18.70;66.30
44477;DHT22;30180;44.788;10.366;2024-02-26T12:32:08;18.70;66.30
44477;DHT22;30180;44.788;10.366;2024-02-26T12:34:38;18.70;66.30
44477;DHT22;30180;44.788;10.366;2024-02-26T12:37:06;18.70;66.30
44477;DHT22;30180;44.788;10.366;2024-02-26T12:39:38;18.70;66.30
44477;DHT22;30180;44.788;10.366;2024-02-26T12:42:07;18.70;66.30
44477;DHT22;30180;44.788;10.366;2024-02-26T12:44:36;18.70;66.30
44477;DHT22;30180;44.788;10.366;2024-02-26T12:47:05;18.70;66.30
44477;DHT22;30180;44.788;10.366;2024-02-26T12:49:34;18.70;66.30
44477;DHT22;30180;44.788;10.366;2024-02-26T12:52:03;18.70;66.30
44477;DHT22;30180;44.788;10.366;2024-02-26T12:54:33;18.70;66.30
44477;DHT22;30180;44.788;10.366;2024-02-26T12:57:04;18.70;66.30
44477;DHT22;30180;44.788;10.366;2024-02-26T12:59:34;18.70;66.30
44477;DHT22;30180;44.788;10.366;2024-02-26T13:02:03;18.70;66.30
44477;DHT22;30180;44.788;10.366;2024-02-26T13:04:35;18.70;66.30
44477;DHT22;30180;44.788;10.366;2024-02-26T13:07:04;18.60;66.20
44477;DHT22;30180;44.788;10.366;2024-02-26T13:09:33;18.70;66.20
44477;DHT22;30180;44.788;10.366;2024-02-26T13:12:06;18.70;66.20
44477;DHT22;30180;44.788;10.366;2024-02-26T13:14:34;18.60;66.10
44477;DHT22;30180;44.788;10.366;2024-02-26T13:17:03;18.60;66.10
44477;DHT22;30180;44.788;10.366;2024-02-26T13:19:32;18.60;66.20
44477;DHT22;30180;44.788;10.366;2024-02-26T13:22:04;18.70;66.20
44477;DHT22;30180;44.788;10.366;2024-02-26T13:24:34;18.60;66.20
44477;DHT22;30180;44.788;10.366;2024-02-26T13:27:02;18.60;66.20
44477;DHT22;30180;44.788;10.366;2024-02-26T13:29:35;18.60;66.20
44477;DHT22;30180;44.788;10.366;2024-02-26T13:32:04;18.60;66.10
44477;DHT22;30180;44.788;10.366;2024-02-26T13:34:34;18.60;66.00
44477;DHT22;30180;44.788;10.366;2024-02-26T13:37:04;18.50;65.90
44477;DHT22;30180;44.788;10.366;2024-02-26T13:39:32;18.50;66.00
44477;DHT22;30180;44.788;10.366;2024-02-26T13:42:05;18.50;66.00
44477;DHT22;30180;44.788;10.366;2024-02-26T13:44:36;18.50;66.00
44477;DHT22;30180;44.788;10.366;2024-02-26T13:47:06;18.50;66.00
44477;DHT22;30180;44.788;10.366;2024-02-26T13:49:35;18.50;66.00
44477;DHT22;30180;44.788;10.366;2024-02-26T13:52:04;18.50;66.00
44477;DHT22;30180;44.788;10.366;2024-02-26T13:54:32;18.40;65.90
44477;DHT22;30180;44.788;10.366;2024-02-26T13:57:02;18.40;65.90
44477;DHT22;30180;44.788;10.366;2024-02-26T13:59:31;18.40;66.00
44477;DHT22;30180;44.788;10.366;2024-02-26T14:02:03;18.40;66.00
44477;DHT22;30180;44.788;10.366;2024-02-26T14:04:31;18.40;65.90
44477;DHT22;30180;44.788;10.366;2024-02-26T14:07:00;18.40;65.90
44477;DHT22;30180;44.788;10.366;2024-02-26T14:09:29;18.40;66.00
44477;DHT22;30180;44.788;10.366;2024-02-26T14:12:12;18.30;66.00
44477;DHT22;30180;44.788;10.366;2024-02-26T14:14:40;18.30;66.00
44477;DHT22;30180;44.788;10.366;2024-02-26T14:17:11;18.30;66.00
44477;DHT22;30180;44.788;10.366;2024-02-26T14:19:40;18.40;66.10
44477;DHT22;30180;44.788;10.366;2024-02-26T14:22:11;18.30;66.10
44477;DHT22;30180;44.788;10.366;2024-02-26T14:24:39;18.40;66.20
44477;DHT22;30180;44.788;10.366;2024-02-26T14:27:10;18.40;66.20
44477;DHT22;30180;44.788;10.366;2024-02-26T14:29:41;18.30;66.10
44477;DHT22;30180;44.788;10.366;2024-02-26T14:32:12;18.40;66.30
44477;DHT22;30180;44.788;10.366;2024-02-26T14:34:40;18.40;66.20
44477;DHT22;30180;44.788;10.366;2024-02-26T14:37:09;18.40;66.90
44477;DHT22;30180;44.788;10.366;2024-02-26T14:39:38;18.40;66.30
44477;DHT22;30180;44.788;10.366;2024-02-26T14:42:07;18.40;66.30
44477;DHT22;30180;44.788;10.366;2024-02-26T14:44:35;18.50;66.40
44477;DHT22;30180;44.788;10.366;2024-02-26T14:47:04;18.50;66.40
44477;DHT22;30180;44.788;10.366;2024-02-26T14:49:35;18.50;66.40
44477;DHT22;30180;44.788;10.366;2024-02-26T14:52:04;18.50;66.50
44477;DHT22;30180;44.788;10.366;2024-02-26T14:54:32;18.50;66.50
44477;DHT22;30180;44.788;10.366;2024-02-26T14:57:05;18.60;66.70
44477;DHT22;30180;44.788;10.366;2024-02-26T14:59:33;18.60;66.70
44477;DHT22;30180;44.788;10.366;2024-02-26T15:02:04;18.60;66.70
44477;DHT22;30180;44.788;10.366;2024-02-26T15:04:35;18.60;66.70
44477;DHT22;30180;44.788;10.366;2024-02-26T15:07:04;18.70;66.70
44477;DHT22;30180;44.788;10.366;2024-02-26T15:09:32;18.70;66.70
44477;DHT22;30180;44.788;10.366;2024-02-26T15:12:02;18.70;66.80
44477;DHT22;30180;44.788;10.366;2024-02-26T15:14:32;18.80;66.80
44477;DHT22;30180;44.788;10.366;2024-02-26T15:17:03;18.80;66.80
44477;DHT22;30180;44.788;10.366;2024-02-26T15:19:41;18.80;66.80
44477;DHT22;30180;44.788;10.366;2024-02-26T15:22:09;18.80;66.80
44477;DHT22;30180;44.788;10.366;2024-02-26T15:24:38;18.80;66.90
44477;DHT22;30180;44.788;10.366;2024-02-26T15:27:07;18.90;67.50
44477;DHT22;30180;44.788;10.366;2024-02-26T15:29:38;18.90;66.90